sensor_id;sensor_type;location;lat;lon;timestamp;temperature;humidity
52189;DHT22;38162;45.926;13.608;2022-08-19T00:01:35;23.80;82.70
52189;DHT22;38162;45.926;13.608;2022-08-19T00:04:04;23.80;82.90
52189;DHT22;38162;45.926;13.608;2022-08-19T00:06:30;23.80;82.90
52189;DHT22;38162;45.926;13.608;2022-08-19T00:08:57;23.80;82.70
52189;DHT22;38162;45.926;13.608;2022-08-19T00:11:25;23.80;82.80
52189;DHT22;38162;45.926;13.608;2022-08-19T00:13:52;23.80;82.90
52189;DHT22;38162;45.926;13.608;2022-08-19T00:16:18;23.80;83.00
52189;DHT22;38162;45.926;13.608;2022-08-19T00:18:45;23.80;82.80
52189;DHT22;38162;45.926;13.608;2022-08-19T00:21:10;23.80;83.00
52189;DHT22;38162;45.926;13.608;2022-08-19T00:23:36;23.70;83.00
52189;DHT22;38162;45.926;13.608;2022-08-19T00:26:05;23.70;83.30
52189;DHT22;38162;45.926;13.608;2022-08-19T00:28:32;23.70;83.40
52189;DHT22;38162;45.926;13.608;2022-08-19T00:30:58;23.60;83.60
52189;DHT22;38162;45.926;13.608;2022-08-19T00:33:25;23.60;83.60
52189;DHT22;38162;45.926;13.608;2022-08-19T00:35:50;23.60;83.60
52189;DHT22;38162;45.926;13.608;2022-08-19T00:38:16;23.60;83.50
52189;DHT22;38162;45.926;13.608;2022-08-19T00:40:43;23.60;83.20
52189;DHT22;38162;45.926;13.608;2022-08-19T00:43:12;23.60;82.70
52189;DHT22;38162;45.926;13.608;2022-08-19T00:45:41;23.70;82.00
52189;DHT22;38162;45.926;13.608;2022-08-19T00:48:09;23.70;82.10
52189;DHT22;38162;45.926;13.608;2022-08-19T00:50:35;23.70;82.50
52189;DHT22;38162;45.926;13.608;2022-08-19T00:53:02;23.70;82.90
52189;DHT22;38162;45.926;13.608;2022-08-19T00:55:30;23.60;83.00
52189;DHT22;38162;45.926;13.608;2022-08-19T00:58:00;23.70;83.30
52189;DHT22;38162;45.926;13.608;2022-08-19T01:00:28;23.60;83.40
52189;DHT22;38162;45.926;13.608;2022-08-19T01:02:54;23.60;83.50
52189;DHT22;38162;45.926;13.608;2022-08-19T01:05:25;23.50;83.60
52189;DHT22;38162;45.926;13.608;2022-08-19T01:07:54;23.50;83.90
52189;DHT22;38162;45.926;13.608;2022-08-19T01:10:24;23.50;84.00
52189;DHT22;38162;45.926;13.608;2022-08-19T01:12:51;23.50;84.30
52189;DHT22;38162;45.926;13.608;2022-08-19T01:15:21;23.50;84.40
52189;DHT22;38162;45.926;13.608;2022-08-19T01:17:48;23.50;84.70
52189;DHT22;38162;45.926;13.608;2022-08-19T01:20:18;23.50;84.70
52189;DHT22;38162;45.926;13.608;2022-08-19T01:22:48;23.50;84.80
52189;DHT22;38162;45.926;13.608;2022-08-19T01:25:17;23.50;84.80
52189;DHT22;38162;45.926;13.608;2022-08-19T01:27:47;23.50;84.60
52189;DHT22;38162;45.926;13.608;2022-08-19T01:30:17;23.50;84.60
52189;DHT22;38162;45.926;13.608;2022-08-19T01:32:43;23.50;84.70
52189;DHT22;38162;45.926;13.608;2022-08-19T01:35:10;23.50;84.60
52189;DHT22;38162;45.926;13.608;2022-08-19T01:38:04;23.50;84.50
52189;DHT22;38162;45.926;13.608;2022-08-19T01:40:35;23.50;84.30
52189;DHT22;38162;45.926;13.608;2022-08-19T01:43:01;23.50;83.90
52189;DHT22;38162;45.926;13.608;2022-08-19T01:45:30;23.50;84.00
52189;DHT22;38162;45.926;13.608;2022-08-19T01:47:58;23.50;84.20
52189;DHT22;38162;45.926;13.608;2022-08-19T01:50:24;23.50;84.20
52189;DHT22;38162;45.926;13.608;2022-08-19T01:52:50;23.50;84.10
52189;DHT22;38162;45.926;13.608;2022-08-19T01:55:18;23.60;83.90
52189;DHT22;38162;45.926;13.608;2022-08-19T01:57:48;23.60;83.70
52189;DHT22;38162;45.926;13.608;2022-08-19T02:00:18;23.50;83.50
52189;DHT22;38162;45.926;13.608;2022-08-19T02:02:44;23.50;83.80
52189;DHT22;38162;45.926;13.608;2022-08-19T02:05:11;23.50;84.10
52189;DHT22;38162;45.926;13.608;2022-08-19T02:07:37;23.40;84.60
52189;DHT22;38162;45.926;13.608;2022-08-19T02:10:07;23.40;85.00
52189;DHT22;38162;45.926;13.608;2022-08-19T02:12:33;23.40;85.40
52189;DHT22;38162;45.926;13.608;2022-08-19T02:14:59;23.40;85.50
52189;DHT22;38162;45.926;13.608;2022-08-19T02:17:26;23.30;85.60
52189;DHT22;38162;45.926;13.608;2022-08-19T02:19:54;23.30;85.90
52189;DHT22;38162;45.926;13.608;2022-08-19T02:22:20;23.30;86.00
52189;DHT22;38162;45.926;13.608;2022-08-19T02:24:46;23.30;86.10
52189;DHT22;38162;45.926;13.608;2022-08-19T02:27:14;23.30;86.00
52189;DHT22;38162;45.926;13.608;2022-08-19T02:29:39;23.30;86.10
52189;DHT22;38162;45.926;13.608;2022-08-19T02:32:06;23.20;86.10
52189;DHT22;38162;45.926;13.608;2022-08-19T02:34:32;23.20;86.10
52189;DHT22;38162;45.926;13.608;2022-08-19T02:36:58;23.20;86.20
52189;DHT22;38162;45.926;13.608;2022-08-19T02:39:23;23.20;86.30
52189;DHT22;38162;45.926;13.608;2022-08-19T02:41:49;23.20;86.70
52189;DHT22;38162;45.926;13.608;2022-08-19T02:44:16;23.20;86.80
52189;DHT22;38162;45.926;13.608;2022-08-19T02:46:41;23.10;87.00
52189;DHT22;38162;45.926;13.608;2022-08-19T02:49:08;23.00;86.90
52189;DHT22;38162;45.926;13.608;2022-08-19T02:51:40;23.00;87.00
52189;DHT22;38162;45.926;13.608;2022-08-19T02:54:07;23.00;87.10
52189;DHT22;38162;45.926;13.608;2022-08-19T02:56:38;22.90;86.90
52189;DHT22;38162;45.926;13.608;2022-08-19T02:59:05;22.90;86.80
52189;DHT22;38162;45.926;13.608;2022-08-19T03:01:35;22.90;87.00
52189;DHT22;38162;45.926;13.608;2022-08-19T03:04:04;22.90;87.20
52189;DHT22;38162;45.926;13.608;2022-08-19T03:06:30;22.90;87.20
52189;DHT22;38162;45.926;13.608;2022-08-19T03:08:57;23.00;87.20
52189;DHT22;38162;45.926;13.608;2022-08-19T03:11:28;23.00;87.30
52189;DHT22;38162;45.926;13.608;2022-08-19T03:13:55;23.00;87.40
52189;DHT22;38162;45.926;13.608;2022-08-19T03:16:23;22.90;87.30
52189;DHT22;38162;45.926;13.608;2022-08-19T03:18:50;23.00;87.40
52189;DHT22;38162;45.926;13.608;2022-08-19T03:21:17;23.00;87.40
52189;DHT22;38162;45.926;13.608;2022-08-19T03:23:44;23.00;87.50
52189;DHT22;38162;45.926;13.608;2022-08-19T03:26:10;23.00;87.40
52189;DHT22;38162;45.926;13.608;2022-08-19T03:28:35;23.00;87.20
52189;DHT22;38162;45.926;13.608;2022-08-19T03:31:03;23.00;87.20
52189;DHT22;38162;45.926;13.608;2022-08-19T03:33:30;22.90;87.00
52189;DHT22;38162;45.926;13.608;2022-08-19T03:36:12;22.90;87.20
52189;DHT22;38162;45.926;13.608;2022-08-19T03:38:45;22.90;87.30
52189;DHT22;38162;45.926;13.608;2022-08-19T03:41:24;22.90;87.30
52189;DHT22;38162;45.926;13.608;2022-08-19T03:43:51;22.90;87.60
52189;DHT22;38162;45.926;13.608;2022-08-19T03:46:19;22.80;87.80
52189;DHT22;38162;45.926;13.608;2022-08-19T03:48:51;22.70;88.10
52189;DHT22;38162;45.926;13.608;2022-08-19T03:51:23;22.70;88.20
52189;DHT22;38162;45.926;13.608;2022-08-19T03:53:50;22.70;88.40
52189;DHT22;38162;45.926;13.608;2022-08-19T03:56:19;22.70;88.40
52189;DHT22;38162;45.926;13.608;2022-08-19T03:58:46;22.60;88.30
52189;DHT22;38162;45.926;13.608;2022-08-19T04:01:14;22.60;88.40
52189;DHT22;38162;45.926;13.608;2022-08-19T04:03:41;22.60;88.20
52189;DHT22;38162;45.926;13.608;2022-08-19T04:06:19;22.60;88.10
52189;DHT22;38162;45.926;13.608;2022-08-19T04:08:49;22.60;88.10
52189;DHT22;38162;45.926;13.608;2022-08-19T04:11:18;22.60;87.90
52189;DHT22;38162;45.926;13.608;2022-08-19T04:13:47;22.50;87.90
52189;DHT22;38162;45.926;13.608;2022-08-19T04:16:14;22.50;87.90
52189;DHT22;38162;45.926;13.608;2022-08-19T04:18:40;22.50;88.10
52189;DHT22;38162;45.926;13.608;2022-08-19T04:21:07;22.40;88.20
52189;DHT22;38162;45.926;13.608;2022-08-19T04:23:34;22.40;89.00
52189;DHT22;38162;45.926;13.608;2022-08-19T04:26:03;22.40;88.30
52189;DHT22;38162;45.926;13.608;2022-08-19T04:28:28;22.40;88.10
52189;DHT22;38162;45.926;13.608;2022-08-19T04:30:55;22.40;87.70
52189;DHT22;38162;45.926;13.608;2022-08-19T04:33:25;22.40;87.50
52189;DHT22;38162;45.926;13.608;2022-08-19T04:35:52;22.40;86.90
52189;DHT22;38162;45.926;13.608;2022-08-19T04:38:20;22.30;86.80
52189;DHT22;38162;45.926;13.608;2022-08-19T04:40:49;22.40;87.00
52189;DHT22;38162;45.926;13.608;2022-08-19T04:43:37;22.40;87.00
52189;DHT22;38162;45.926;13.608;2022-08-19T04:46:12;22.40;87.40
52189;DHT22;38162;45.926;13.608;2022-08-19T04:48:39;22.40;87.70
52189;DHT22;38162;45.926;13.608;2022-08-19T04:51:10;22.40;87.90
52189;DHT22;38162;45.926;13.608;2022-08-19T04:53:37;22.40;88.10
52189;DHT22;38162;45.926;13.608;2022-08-19T04:56:09;22.40;88.20
52189;DHT22;38162;45.926;13.608;2022-08-19T04:58:36;22.30;88.50
52189;DHT22;38162;45.926;13.608;2022-08-19T05:01:03;22.30;88.50
52189;DHT22;38162;45.926;13.608;2022-08-19T05:03:28;22.30;88.00
52189;DHT22;38162;45.926;13.608;2022-08-19T05:05:58;22.30;86.60
52189;DHT22;38162;45.926;13.608;2022-08-19T05:08:24;22.30;85.50
52189;DHT22;38162;45.926;13.608;2022-08-19T05:10:51;22.20;85.40
52189;DHT22;38162;45.926;13.608;2022-08-19T05:13:18;22.20;85.30
52189;DHT22;38162;45.926;13.608;2022-08-19T05:15:54;22.20;84.90
52189;DHT22;38162;45.926;13.608;2022-08-19T05:18:20;22.10;84.40
52189;DHT22;38162;45.926;13.608;2022-08-19T05:21:12;22.10;83.70
52189;DHT22;38162;45.926;13.608;2022-08-19T05:24:03;22.00;83.10
52189;DHT22;38162;45.926;13.608;2022-08-19T05:26:29;22.00;83.10
52189;DHT22;38162;45.926;13.608;2022-08-19T05:28:55;22.00;82.90
52189;DHT22;38162;45.926;13.608;2022-08-19T05:31:21;22.00;82.80
52189;DHT22;38162;45.926;13.608;2022-08-19T05:33:47;22.00;82.30
52189;DHT22;38162;45.926;13.608;2022-08-19T05:36:13;22.00;82.10
52189;DHT22;38162;45.926;13.608;2022-08-19T05:38:39;22.00;81.90
52189;DHT22;38162;45.926;13.608;2022-08-19T05:41:13;22.00;80.20
52189;DHT22;38162;45.926;13.608;2022-08-19T05:43:39;22.00;80.40
52189;DHT22;38162;45.926;13.608;2022-08-19T05:46:06;22.00;80.00
52189;DHT22;38162;45.926;13.608;2022-08-19T05:48:33;21.90;79.70
52189;DHT22;38162;45.926;13.608;2022-08-19T05:51:04;22.00;79.80
52189;DHT22;38162;45.926;13.608;2022-08-19T05:53:31;22.00;79.50
52189;DHT22;38162;45.926;13.608;2022-08-19T05:55:57;22.00;79.20
52189;DHT22;38162;45.926;13.608;2022-08-19T05:58:22;22.00;79.10
52189;DHT22;38162;45.926;13.608;2022-08-19T06:00:49;22.00;79.00
52189;DHT22;38162;45.926;13.608;2022-08-19T06:03:15;22.00;78.20
52189;DHT22;38162;45.926;13.608;2022-08-19T06:05:41;22.00;77.90
52189;DHT22;38162;45.926;13.608;2022-08-19T06:08:07;22.10;78.70
52189;DHT22;38162;45.926;13.608;2022-08-19T06:10:32;22.00;79.70
52189;DHT22;38162;45.926;13.608;2022-08-19T06:12:58;22.10;80.50
52189;DHT22;38162;45.926;13.608;2022-08-19T06:15:24;22.10;81.10
52189;DHT22;38162;45.926;13.608;2022-08-19T06:17:51;22.10;81.20
52189;DHT22;38162;45.926;13.608;2022-08-19T06:20:16;22.10;81.80
52189;DHT22;38162;45.926;13.608;2022-08-19T06:22:45;22.10;82.10
52189;DHT22;38162;45.926;13.608;2022-08-19T06:25:13;22.10;82.50
52189;DHT22;38162;45.926;13.608;2022-08-19T06:27:39;22.10;82.80
52189;DHT22;38162;45.926;13.608;2022-08-19T06:30:06;22.20;83.60
52189;DHT22;38162;45.926;13.608;2022-08-19T06:32:31;22.20;83.90
52189;DHT22;38162;45.926;13.608;2022-08-19T06:34:57;22.20;83.80
52189;DHT22;38162;45.926;13.608;2022-08-19T06:37:23;22.20;83.80
52189;DHT22;38162;45.926;13.608;2022-08-19T06:39:49;22.20;83.40
52189;DHT22;38162;45.926;13.608;2022-08-19T06:42:15;22.30;83.00
52189;DHT22;38162;45.926;13.608;2022-08-19T06:44:45;22.30;82.80
52189;DHT22;38162;45.926;13.608;2022-08-19T06:47:13;22.40;82.90
52189;DHT22;38162;45.926;13.608;2022-08-19T06:49:40;22.40;82.50
52189;DHT22;38162;45.926;13.608;2022-08-19T06:52:06;22.40;82.20
52189;DHT22;38162;45.926;13.608;2022-08-19T06:54:31;22.40;81.80
52189;DHT22;38162;45.926;13.608;2022-08-19T06:56:58;22.40;81.50
52189;DHT22;38162;45.926;13.608;2022-08-19T06:59:28;22.40;81.60
52189;DHT22;38162;45.926;13.608;2022-08-19T07:02:00;22.40;82.00
52189;DHT22;38162;45.926;13.608;2022-08-19T07:04:28;22.50;82.40
52189;DHT22;38162;45.926;13.608;2022-08-19T07:07:06;22.50;82.40
52189;DHT22;38162;45.926;13.608;2022-08-19T07:09:36;22.50;82.80
52189;DHT22;38162;45.926;13.608;2022-08-19T07:12:05;22.50;82.90
52189;DHT22;38162;45.926;13.608;2022-08-19T07:14:32;22.50;83.40
52189;DHT22;38162;45.926;13.608;2022-08-19T07:17:02;22.50;83.70
52189;DHT22;38162;45.926;13.608;2022-08-19T07:19:28;22.50;83.50
52189;DHT22;38162;45.926;13.608;2022-08-19T07:21:55;22.50;83.70
52189;DHT22;38162;45.926;13.608;2022-08-19T07:24:23;22.60;83.90
52189;DHT22;38162;45.926;13.608;2022-08-19T07:26:51;22.60;83.70
52189;DHT22;38162;45.926;13.608;2022-08-19T07:29:18;22.60;83.90
52189;DHT22;38162;45.926;13.608;2022-08-19T07:31:44;22.60;83.80
52189;DHT22;38162;45.926;13.608;2022-08-19T07:34:11;22.60;84.00
52189;DHT22;38162;45.926;13.608;2022-08-19T07:36:41;22.70;83.50
52189;DHT22;38162;45.926;13.608;2022-08-19T07:39:14;22.70;82.90
52189;DHT22;38162;45.926;13.608;2022-08-19T07:41:41;22.70;82.10
52189;DHT22;38162;45.926;13.608;2022-08-19T07:44:08;22.80;82.10
52189;DHT22;38162;45.926;13.608;2022-08-19T07:46:36;22.80;82.10
52189;DHT22;38162;45.926;13.608;2022-08-19T07:49:03;22.90;81.10
52189;DHT22;38162;45.926;13.608;2022-08-19T07:51:29;23.00;80.30
52189;DHT22;38162;45.926;13.608;2022-08-19T07:53:55;23.10;80.20
52189;DHT22;38162;45.926;13.608;2022-08-19T07:56:21;23.10;80.10
52189;DHT22;38162;45.926;13.608;2022-08-19T07:58:49;23.20;79.70
52189;DHT22;38162;45.926;13.608;2022-08-19T08:01:21;23.20;79.40
52189;DHT22;38162;45.926;13.608;2022-08-19T08:03:47;23.30;79.70
52189;DHT22;38162;45.926;13.608;2022-08-19T08:06:32;23.30;79.80
52189;DHT22;38162;45.926;13.608;2022-08-19T08:09:18;23.40;80.20
52189;DHT22;38162;45.926;13.608;2022-08-19T08:11:52;23.40;79.90
52189;DHT22;38162;45.926;13.608;2022-08-19T08:14:28;23.50;79.50
52189;DHT22;38162;45.926;13.608;2022-08-19T08:16:55;23.60;78.90
52189;DHT22;38162;45.926;13.608;2022-08-19T08:19:22;23.60;78.90
52189;DHT22;38162;45.926;13.608;2022-08-19T08:21:49;23.60;79.00
52189;DHT22;38162;45.926;13.608;2022-08-19T08:24:16;23.60;78.30
52189;DHT22;38162;45.926;13.608;2022-08-19T08:26:43;23.60;77.80
52189;DHT22;38162;45.926;13.608;2022-08-19T08:29:10;23.60;78.10
52189;DHT22;38162;45.926;13.608;2022-08-19T08:31:42;23.60;78.80
52189;DHT22;38162;45.926;13.608;2022-08-19T08:34:09;23.60;79.00
52189;DHT22;38162;45.926;13.608;2022-08-19T08:36:39;23.70;79.00
52189;DHT22;38162;45.926;13.608;2022-08-19T08:39:08;23.60;79.00
52189;DHT22;38162;45.926;13.608;2022-08-19T08:44:03;23.70;80.20
52189;DHT22;38162;45.926;13.608;2022-08-19T08:46:39;23.70;80.90
52189;DHT22;38162;45.926;13.608;2022-08-19T08:52:11;23.60;81.40
52189;DHT22;38162;45.926;13.608;2022-08-19T08:54:47;23.60;81.70
52189;DHT22;38162;45.926;13.608;2022-08-19T08:57:29;23.60;81.60
52189;DHT22;38162;45.926;13.608;2022-08-19T08:59:57;23.60;82.20
52189;DHT22;38162;45.926;13.608;2022-08-19T09:02:25;23.60;83.20
52189;DHT22;38162;45.926;13.608;2022-08-19T09:04:51;23.60;84.10
52189;DHT22;38162;45.926;13.608;2022-08-19T09:07:37;23.50;85.60
52189;DHT22;38162;45.926;13.608;2022-08-19T09:15:52;23.50;88.00
52189;DHT22;38162;45.926;13.608;2022-08-19T09:18:20;23.50;88.40
52189;DHT22;38162;45.926;13.608;2022-08-19T09:20:46;23.50;88.90
52189;DHT22;38162;45.926;13.608;2022-08-19T09:23:15;23.50;88.70
52189;DHT22;38162;45.926;13.608;2022-08-19T09:25:40;23.50;88.40
52189;DHT22;38162;45.926;13.608;2022-08-19T09:28:06;23.50;88.10
52189;DHT22;38162;45.926;13.608;2022-08-19T09:30:38;23.50;88.30
52189;DHT22;38162;45.926;13.608;2022-08-19T09:33:05;23.50;88.10
52189;DHT22;38162;45.926;13.608;2022-08-19T09:35:32;23.40;88.00
52189;DHT22;38162;45.926;13.608;2022-08-19T09:37:58;23.40;87.70
52189;DHT22;38162;45.926;13.608;2022-08-19T09:40:26;23.40;87.60
52189;DHT22;38162;45.926;13.608;2022-08-19T09:42:52;23.30;87.50
52189;DHT22;38162;45.926;13.608;2022-08-19T09:45:20;23.20;87.60
52189;DHT22;38162;45.926;13.608;2022-08-19T09:47:48;23.20;87.80
52189;DHT22;38162;45.926;13.608;2022-08-19T09:50:14;23.20;88.10
52189;DHT22;38162;45.926;13.608;2022-08-19T09:52:40;23.20;88.60
52189;DHT22;38162;45.926;13.608;2022-08-19T09:55:09;23.20;88.60
52189;DHT22;38162;45.926;13.608;2022-08-19T09:57:35;23.20;88.50
52189;DHT22;38162;45.926;13.608;2022-08-19T10:00:03;23.30;88.20
52189;DHT22;38162;45.926;13.608;2022-08-19T10:02:30;23.30;88.00
52189;DHT22;38162;45.926;13.608;2022-08-19T10:04:55;23.40;87.90
52189;DHT22;38162;45.926;13.608;2022-08-19T10:07:39;23.40;87.70
52189;DHT22;38162;45.926;13.608;2022-08-19T10:10:06;23.40;87.30
52189;DHT22;38162;45.926;13.608;2022-08-19T10:12:33;23.40;87.10
52189;DHT22;38162;45.926;13.608;2022-08-19T10:15:00;23.40;87.20
52189;DHT22;38162;45.926;13.608;2022-08-19T10:17:25;23.50;87.40
52189;DHT22;38162;45.926;13.608;2022-08-19T10:19:52;23.60;87.40
52189;DHT22;38162;45.926;13.608;2022-08-19T10:22:18;23.70;87.10
52189;DHT22;38162;45.926;13.608;2022-08-19T10:24:45;23.80;86.90
52189;DHT22;38162;45.926;13.608;2022-08-19T10:27:11;23.80;86.70
52189;DHT22;38162;45.926;13.608;2022-08-19T10:29:39;23.80;86.60
52189;DHT22;38162;45.926;13.608;2022-08-19T10:32:08;23.80;87.30
52189;DHT22;38162;45.926;13.608;2022-08-19T10:34:35;23.80;87.20
52189;DHT22;38162;45.926;13.608;2022-08-19T10:37:03;23.80;87.50
52189;DHT22;38162;45.926;13.608;2022-08-19T10:39:32;23.80;87.60
52189;DHT22;38162;45.926;13.608;2022-08-19T10:41:58;23.80;87.90
52189;DHT22;38162;45.926;13.608;2022-08-19T10:44:25;23.80;88.20
52189;DHT22;38162;45.926;13.608;2022-08-19T10:46:50;23.80;88.30
52189;DHT22;38162;45.926;13.608;2022-08-19T10:49:17;23.80;88.30
52189;DHT22;38162;45.926;13.608;2022-08-19T10:51:45;23.80;88.30
52189;DHT22;38162;45.926;13.608;2022-08-19T10:54:29;23.80;88.50
52189;DHT22;38162;45.926;13.608;2022-08-19T10:57:14;23.80;88.50
52189;DHT22;38162;45.926;13.608;2022-08-19T10:59:41;23.80;88.60
52189;DHT22;38162;45.926;13.608;2022-08-19T11:02:09;23.80;88.80
52189;DHT22;38162;45.926;13.608;2022-08-19T11:04:36;23.80;88.70
52189;DHT22;38162;45.926;13.608;2022-08-19T11:07:03;23.80;88.20
52189;DHT22;38162;45.926;13.608;2022-08-19T11:09:30;23.80;88.10
52189;DHT22;38162;45.926;13.608;2022-08-19T11:11:56;23.80;88.20
52189;DHT22;38162;45.926;13.608;2022-08-19T11:14:22;23.80;88.50
52189;DHT22;38162;45.926;13.608;2022-08-19T11:16:49;23.80;88.00
52189;DHT22;38162;45.926;13.608;2022-08-19T11:19:16;23.80;87.70
52189;DHT22;38162;45.926;13.608;2022-08-19T11:21:46;23.80;87.90
52189;DHT22;38162;45.926;13.608;2022-08-19T11:24:15;23.80;88.30
52189;DHT22;38162;45.926;13.608;2022-08-19T11:26:42;23.80;89.30
52189;DHT22;38162;45.926;13.608;2022-08-19T11:29:09;23.80;90.10
52189;DHT22;38162;45.926;13.608;2022-08-19T11:31:42;23.70;88.60
52189;DHT22;38162;45.926;13.608;2022-08-19T11:34:10;23.60;87.20
52189;DHT22;38162;45.926;13.608;2022-08-19T11:36:39;23.50;86.50
52189;DHT22;38162;45.926;13.608;2022-08-19T11:39:08;23.40;86.90
52189;DHT22;38162;45.926;13.608;2022-08-19T11:41:33;23.30;87.80
52189;DHT22;38162;45.926;13.608;2022-08-19T11:43:59;23.40;88.80
52189;DHT22;38162;45.926;13.608;2022-08-19T11:46:26;23.60;90.20
52189;DHT22;38162;45.926;13.608;2022-08-19T11:48:58;23.90;90.40
52189;DHT22;38162;45.926;13.608;2022-08-19T11:51:25;24.20;90.70
52189;DHT22;38162;45.926;13.608;2022-08-19T11:53:55;24.50;90.80
52189;DHT22;38162;45.926;13.608;2022-08-19T11:56:22;24.70;90.60
52189;DHT22;38162;45.926;13.608;2022-08-19T11:58:49;25.00;90.20
52189;DHT22;38162;45.926;13.608;2022-08-19T12:01:17;25.20;89.50
52189;DHT22;38162;45.926;13.608;2022-08-19T12:03:49;25.40;88.30
52189;DHT22;38162;45.926;13.608;2022-08-19T12:06:18;25.60;86.60
52189;DHT22;38162;45.926;13.608;2022-08-19T12:08:44;25.60;85.50
52189;DHT22;38162;45.926;13.608;2022-08-19T12:11:14;25.80;85.60
52189;DHT22;38162;45.926;13.608;2022-08-19T12:13:41;25.90;86.50
52189;DHT22;38162;45.926;13.608;2022-08-19T12:16:12;26.10;85.90
52189;DHT22;38162;45.926;13.608;2022-08-19T12:18:42;26.30;84.60
52189;DHT22;38162;45.926;13.608;2022-08-19T12:21:10;26.50;82.70
52189;DHT22;38162;45.926;13.608;2022-08-19T12:23:39;26.70;84.00
52189;DHT22;38162;45.926;13.608;2022-08-19T12:26:05;26.90;83.10
52189;DHT22;38162;45.926;13.608;2022-08-19T12:28:32;27.10;82.00
52189;DHT22;38162;45.926;13.608;2022-08-19T12:30:58;27.20;81.20
52189;DHT22;38162;45.926;13.608;2022-08-19T12:33:23;27.40;80.80
52189;DHT22;38162;45.926;13.608;2022-08-19T12:35:52;27.50;79.60
52189;DHT22;38162;45.926;13.608;2022-08-19T12:38:18;27.60;78.70
52189;DHT22;38162;45.926;13.608;2022-08-19T12:40:48;27.70;78.50
52189;DHT22;38162;45.926;13.608;2022-08-19T12:43:15;27.70;77.00
52189;DHT22;38162;45.926;13.608;2022-08-19T12:45:45;27.70;76.40
52189;DHT22;38162;45.926;13.608;2022-08-19T12:48:11;27.70;75.60
52189;DHT22;38162;45.926;13.608;2022-08-19T12:50:40;27.70;74.50
52189;DHT22;38162;45.926;13.608;2022-08-19T12:53:06;27.60;74.00
52189;DHT22;38162;45.926;13.608;2022-08-19T12:55:31;27.50;73.60
52189;DHT22;38162;45.926;13.608;2022-08-19T12:57:57;27.40;73.00
52189;DHT22;38162;45.926;13.608;2022-08-19T13:00:23;27.40;72.70
52189;DHT22;38162;45.926;13.608;2022-08-19T13:02:51;27.40;72.60
52189;DHT22;38162;45.926;13.608;2022-08-19T13:05:20;27.40;72.20
52189;DHT22;38162;45.926;13.608;2022-08-19T13:07:48;27.40;71.40
52189;DHT22;38162;45.926;13.608;2022-08-19T13:10:16;27.50;72.40
52189;DHT22;38162;45.926;13.608;2022-08-19T13:12:43;27.50;71.90
52189;DHT22;38162;45.926;13.608;2022-08-19T13:15:10;27.60;70.70
52189;DHT22;38162;45.926;13.608;2022-08-19T13:17:36;27.50;70.20
52189;DHT22;38162;45.926;13.608;2022-08-19T13:20:03;27.60;70.50
52189;DHT22;38162;45.926;13.608;2022-08-19T13:22:31;27.60;70.90
52189;DHT22;38162;45.926;13.608;2022-08-19T13:24:57;27.60;70.40
52189;DHT22;38162;45.926;13.608;2022-08-19T13:27:22;27.70;69.50
52189;DHT22;38162;45.926;13.608;2022-08-19T13:29:48;27.70;68.20
52189;DHT22;38162;45.926;13.608;2022-08-19T13:32:32;27.70;68.10
52189;DHT22;38162;45.926;13.608;2022-08-19T13:35:16;27.70;67.40
52189;DHT22;38162;45.926;13.608;2022-08-19T13:37:42;27.70;67.20
52189;DHT22;38162;45.926;13.608;2022-08-19T13:40:16;27.70;67.50
52189;DHT22;38162;45.926;13.608;2022-08-19T13:42:45;27.60;67.00
52189;DHT22;38162;45.926;13.608;2022-08-19T13:45:12;27.60;65.20
52189;DHT22;38162;45.926;13.608;2022-08-19T13:47:38;27.50;66.30
52189;DHT22;38162;45.926;13.608;2022-08-19T13:50:09;27.50;67.10
52189;DHT22;38162;45.926;13.608;2022-08-19T13:52:36;27.60;67.50
52189;DHT22;38162;45.926;13.608;2022-08-19T13:55:02;27.60;67.40
52189;DHT22;38162;45.926;13.608;2022-08-19T13:57:29;27.50;67.10
52189;DHT22;38162;45.926;13.608;2022-08-19T13:59:57;27.50;67.00
52189;DHT22;38162;45.926;13.608;2022-08-19T14:02:23;27.40;67.10
52189;DHT22;38162;45.926;13.608;2022-08-19T14:04:48;27.40;67.20
52189;DHT22;38162;45.926;13.608;2022-08-19T14:07:14;27.40;67.40
52189;DHT22;38162;45.926;13.608;2022-08-19T14:09:40;27.50;66.70
52189;DHT22;38162;45.926;13.608;2022-08-19T14:12:06;27.50;65.80
52189;DHT22;38162;45.926;13.608;2022-08-19T14:14:32;27.40;64.90
52189;DHT22;38162;45.926;13.608;2022-08-19T14:17:01;27.50;64.00
52189;DHT22;38162;45.926;13.608;2022-08-19T14:19:26;27.50;63.50
52189;DHT22;38162;45.926;13.608;2022-08-19T14:21:52;27.60;63.50
52189;DHT22;38162;45.926;13.608;2022-08-19T14:24:18;27.60;63.30
52189;DHT22;38162;45.926;13.608;2022-08-19T14:26:43;27.60;63.10
52189;DHT22;38162;45.926;13.608;2022-08-19T14:29:09;27.60;63.30
52189;DHT22;38162;45.926;13.608;2022-08-19T14:31:35;27.70;64.00
52189;DHT22;38162;45.926;13.608;2022-08-19T14:34:00;27.70;63.90
52189;DHT22;38162;45.926;13.608;2022-08-19T14:36:26;27.80;63.80
52189;DHT22;38162;45.926;13.608;2022-08-19T14:38:52;27.80;64.00
52189;DHT22;38162;45.926;13.608;2022-08-19T14:41:23;27.80;64.00
52189;DHT22;38162;45.926;13.608;2022-08-19T14:43:51;27.80;64.10
52189;DHT22;38162;45.926;13.608;2022-08-19T14:46:20;27.80;63.90
52189;DHT22;38162;45.926;13.608;2022-08-19T14:48:46;27.90;63.40
52189;DHT22;38162;45.926;13.608;2022-08-19T14:51:13;27.90;63.30
52189;DHT22;38162;45.926;13.608;2022-08-19T14:53:39;27.90;63.30
52189;DHT22;38162;45.926;13.608;2022-08-19T14:56:14;28.00;63.60
52189;DHT22;38162;45.926;13.608;2022-08-19T14:58:42;27.90;66.00
52189;DHT22;38162;45.926;13.608;2022-08-19T15:01:08;27.90;67.30
52189;DHT22;38162;45.926;13.608;2022-08-19T15:03:34;28.00;67.90
52189;DHT22;38162;45.926;13.608;2022-08-19T15:06:01;28.00;68.60
52189;DHT22;38162;45.926;13.608;2022-08-19T15:08:29;28.00;68.80
52189;DHT22;38162;45.926;13.608;2022-08-19T15:10:55;28.00;68.70
52189;DHT22;38162;45.926;13.608;2022-08-19T15:13:22;28.00;68.80
52189;DHT22;38162;45.926;13.608;2022-08-19T15:15:49;28.00;69.30
52189;DHT22;38162;45.926;13.608;2022-08-19T15:18:14;28.00;69.40
52189;DHT22;38162;45.926;13.608;2022-08-19T15:20:40;28.00;68.80
52189;DHT22;38162;45.926;13.608;2022-08-19T15:23:06;28.00;68.50
52189;DHT22;38162;45.926;13.608;2022-08-19T15:25:32;27.90;68.70
52189;DHT22;38162;45.926;13.608;2022-08-19T15:27:58;27.90;68.50
52189;DHT22;38162;45.926;13.608;2022-08-19T15:30:27;27.90;67.40
52189;DHT22;38162;45.926;13.608;2022-08-19T15:32:54;27.80;67.30